sensor_id;sensor_type;location;lat;lon;timestamp;pressure;altitude;pressure_sealevel;temperature;humidity
22647;BME280;11490;42.726;23.268;2023-02-26T00:01:27;94054.53;;;14.02;61.05
22647;BME280;11490;42.726;23.268;2023-02-26T00:03:55;94046.34;;;13.94;61.07
22647;BME280;11490;42.726;23.268;2023-02-26T00:06:22;94054.88;;;13.96;59.91
22647;BME280;11490;42.726;23.268;2023-02-26T00:08:48;94031.69;;;13.86;59.98
22647;BME280;11490;42.726;23.268;2023-02-26T00:11:13;94033.72;;;13.94;59.17
22647;BME280;11490;42.726;23.268;2023-02-26T00:13:40;94047.66;;;13.96;59.61
22647;BME280;11490;42.726;23.268;2023-02-26T00:16:26;94047.09;;;13.99;59.64
22647;BME280;11490;42.726;23.268;2023-02-26T00:18:52;94047.59;;;14.01;59.65
22647;BME280;11490;42.726;23.268;2023-02-26T00:21:20;94034.31;;;13.91;59.26
22647;BME280;11490;42.726;23.268;2023-02-26T00:23:46;94035.91;;;13.92;60.53
22647;BME280;11490;42.726;23.268;2023-02-26T00:26:11;94024.16;;;13.88;60.34
22647;BME280;11490;42.726;23.268;2023-02-26T00:28:37;94017.81;;;13.79;60.53
22647;BME280;11490;42.726;23.268;2023-02-26T00:31:03;94036.25;;;13.85;59.74
22647;BME280;11490;42.726;23.268;2023-02-26T00:33:29;94010.94;;;13.73;59.34
22647;BME280;11490;42.726;23.268;2023-02-26T00:36:26;94014.69;;;13.96;58.79
22647;BME280;11490;42.726;23.268;2023-02-26T00:41:29;94014.47;;;13.92;59.08
22647;BME280;11490;42.726;23.268;2023-02-26T00:43:55;94028.94;;;13.91;59.13
22647;BME280;11490;42.726;23.268;2023-02-26T00:46:38;94011.50;;;13.94;59.27
22647;BME280;11490;42.726;23.268;2023-02-26T00:56:43;93998.50;;;13.82;56.80
22647;BME280;11490;42.726;23.268;2023-02-26T00:59:08;94027.81;;;13.97;57.37
22647;BME280;11490;42.726;23.268;2023-02-26T01:01:33;94016.63;;;13.90;57.60
22647;BME280;11490;42.726;23.268;2023-02-26T01:03:59;94022.00;;;13.90;57.09
22647;BME280;11490;42.726;23.268;2023-02-26T01:06:27;94008.50;;;13.95;56.83
22647;BME280;11490;42.726;23.268;2023-02-26T01:11:30;94009.56;;;13.99;56.32
22647;BME280;11490;42.726;23.268;2023-02-26T01:13:55;94000.56;;;13.90;56.92
22647;BME280;11490;42.726;23.268;2023-02-26T01:16:25;94012.28;;;13.94;57.01
22647;BME280;11490;42.726;23.268;2023-02-26T01:21:33;93989.75;;;13.95;57.19
22647;BME280;11490;42.726;23.268;2023-02-26T01:24:06;93992.69;;;13.75;57.73
22647;BME280;11490;42.726;23.268;2023-02-26T01:26:32;93980.75;;;13.86;57.48
22647;BME280;11490;42.726;23.268;2023-02-26T01:28:58;93980.91;;;13.76;57.55
22647;BME280;11490;42.726;23.268;2023-02-26T01:34:14;93967.16;;;13.82;56.11
22647;BME280;11490;42.726;23.268;2023-02-26T01:36:55;93961.88;;;13.96;55.72
22647;BME280;11490;42.726;23.268;2023-02-26T01:39:39;93948.53;;;13.91;55.48
22647;BME280;11490;42.726;23.268;2023-02-26T01:42:16;93941.81;;;13.94;55.13
22647;BME280;11490;42.726;23.268;2023-02-26T01:45:03;93956.50;;;13.96;56.61
22647;BME280;11490;42.726;23.268;2023-02-26T01:47:50;93951.50;;;13.90;55.34
22647;BME280;11490;42.726;23.268;2023-02-26T01:50:21;93965.63;;;13.95;54.22
22647;BME280;11490;42.726;23.268;2023-02-26T01:55:23;93953.47;;;13.84;55.94
22647;BME280;11490;42.726;23.268;2023-02-26T01:57:54;93944.91;;;13.82;54.75
22647;BME280;11490;42.726;23.268;2023-02-26T02:00:20;93951.28;;;13.86;54.76
22647;BME280;11490;42.726;23.268;2023-02-26T02:02:46;93962.88;;;13.81;54.85
22647;BME280;11490;42.726;23.268;2023-02-26T02:05:27;93942.31;;;13.77;54.93
22647;BME280;11490;42.726;23.268;2023-02-26T02:07:56;93942.78;;;13.79;55.82
22647;BME280;11490;42.726;23.268;2023-02-26T02:10:22;93956.78;;;13.76;55.50
22647;BME280;11490;42.726;23.268;2023-02-26T02:15:25;93947.72;;;13.72;55.77
22647;BME280;11490;42.726;23.268;2023-02-26T02:31:32;93933.53;;;13.47;55.72
22647;BME280;11490;42.726;23.268;2023-02-26T02:34:11;93929.84;;;13.43;56.11
22647;BME280;11490;42.726;23.268;2023-02-26T02:36:44;93936.28;;;13.42;55.99
22647;BME280;11490;42.726;23.268;2023-02-26T02:39:36;93953.72;;;13.40;55.71
22647;BME280;11490;42.726;23.268;2023-02-26T02:42:07;93946.09;;;13.52;55.33
22647;BME280;11490;42.726;23.268;2023-02-26T02:44:45;93935.09;;;13.54;53.83
22647;BME280;11490;42.726;23.268;2023-02-26T02:47:14;93957.34;;;13.54;54.77
22647;BME280;11490;42.726;23.268;2023-02-26T02:49:47;93950.53;;;13.62;55.27
22647;BME280;11490;42.726;23.268;2023-02-26T02:52:25;93960.34;;;13.47;55.23
22647;BME280;11490;42.726;23.268;2023-02-26T02:54:58;93954.41;;;13.51;54.03
22647;BME280;11490;42.726;23.268;2023-02-26T02:57:51;93957.59;;;13.53;54.39
22647;BME280;11490;42.726;23.268;2023-02-26T03:00:20;93972.09;;;13.52;54.41
22647;BME280;11490;42.726;23.268;2023-02-26T03:03:12;93970.13;;;13.57;54.93
22647;BME280;11490;42.726;23.268;2023-02-26T03:05:40;93965.13;;;13.51;53.94
22647;BME280;11490;42.726;23.268;2023-02-26T03:08:09;93945.66;;;13.45;55.65
22647;BME280;11490;42.726;23.268;2023-02-26T03:10:36;93968.88;;;13.49;55.07
22647;BME280;11490;42.726;23.268;2023-02-26T03:13:01;93969.50;;;13.41;54.81
22647;BME280;11490;42.726;23.268;2023-02-26T03:15:36;93967.88;;;13.45;55.10
22647;BME280;11490;42.726;23.268;2023-02-26T03:18:10;93971.84;;;13.48;54.89
22647;BME280;11490;42.726;23.268;2023-02-26T03:20:49;93964.13;;;13.46;53.51
22647;BME280;11490;42.726;23.268;2023-02-26T03:23:33;93955.38;;;13.60;52.64
22647;BME280;11490;42.726;23.268;2023-02-26T03:26:11;93948.03;;;13.46;53.06
22647;BME280;11490;42.726;23.268;2023-02-26T03:28:54;93950.09;;;13.55;52.95
22647;BME280;11490;42.726;23.268;2023-02-26T03:31:47;93963.97;;;13.57;53.14
22647;BME280;11490;42.726;23.268;2023-02-26T03:34:36;93962.19;;;13.71;52.40
22647;BME280;11490;42.726;23.268;2023-02-26T03:37:08;93954.31;;;13.61;54.09
22647;BME280;11490;42.726;23.268;2023-02-26T03:39:41;93962.44;;;13.51;52.43
22647;BME280;11490;42.726;23.268;2023-02-26T03:42:17;93955.31;;;13.65;53.57
22647;BME280;11490;42.726;23.268;2023-02-26T03:44:52;93950.97;;;13.69;53.88
22647;BME280;11490;42.726;23.268;2023-02-26T03:47:19;93957.78;;;13.61;53.30
22647;BME280;11490;42.726;23.268;2023-02-26T03:49:52;93935.28;;;13.38;53.80
22647;BME280;11490;42.726;23.268;2023-02-26T03:52:22;93948.72;;;13.33;54.39
22647;BME280;11490;42.726;23.268;2023-02-26T03:54:54;93951.19;;;13.54;55.79
22647;BME280;11490;42.726;23.268;2023-02-26T03:57:22;93948.59;;;13.43;55.53
22647;BME280;11490;42.726;23.268;2023-02-26T03:59:47;93946.44;;;13.45;55.45
22647;BME280;11490;42.726;23.268;2023-02-26T04:02:17;93955.44;;;13.55;55.63
22647;BME280;11490;42.726;23.268;2023-02-26T04:04:53;93945.06;;;13.48;54.41
22647;BME280;11490;42.726;23.268;2023-02-26T04:07:20;93944.72;;;13.55;54.74
22647;BME280;11490;42.726;23.268;2023-02-26T04:09:48;93943.50;;;13.47;55.70
22647;BME280;11490;42.726;23.268;2023-02-26T04:12:14;93944.75;;;13.31;56.16
22647;BME280;11490;42.726;23.268;2023-02-26T04:14:40;93932.19;;;13.50;56.72
22647;BME280;11490;42.726;23.268;2023-02-26T04:17:05;93926.47;;;13.14;55.47
22647;BME280;11490;42.726;23.268;2023-02-26T04:19:34;93926.97;;;13.16;56.01
22647;BME280;11490;42.726;23.268;2023-02-26T04:22:02;93903.63;;;13.22;55.77
22647;BME280;11490;42.726;23.268;2023-02-26T04:24:28;93904.91;;;13.24;56.69
22647;BME280;11490;42.726;23.268;2023-02-26T04:26:54;93922.13;;;13.18;56.73
22647;BME280;11490;42.726;23.268;2023-02-26T04:29:19;93913.72;;;13.25;56.95
22647;BME280;11490;42.726;23.268;2023-02-26T04:31:44;93889.56;;;13.06;57.91
22647;BME280;11490;42.726;23.268;2023-02-26T04:34:10;93904.03;;;13.05;56.50
22647;BME280;11490;42.726;23.268;2023-02-26T04:36:35;93899.53;;;13.24;55.17
22647;BME280;11490;42.726;23.268;2023-02-26T04:39:00;93899.84;;;13.23;55.52
22647;BME280;11490;42.726;23.268;2023-02-26T04:41:26;93920.03;;;13.39;55.52
22647;BME280;11490;42.726;23.268;2023-02-26T04:43:51;93893.56;;;13.32;56.11
22647;BME280;11490;42.726;23.268;2023-02-26T04:46:17;93897.00;;;13.38;55.96
22647;BME280;11490;42.726;23.268;2023-02-26T04:48:43;93902.28;;;13.19;55.90
22647;BME280;11490;42.726;23.268;2023-02-26T04:51:08;93878.13;;;13.24;55.48
22647;BME280;11490;42.726;23.268;2023-02-26T04:53:33;93879.25;;;13.23;55.39
22647;BME280;11490;42.726;23.268;2023-02-26T04:55:59;93896.31;;;13.27;55.03
22647;BME280;11490;42.726;23.268;2023-02-26T04:58:24;93885.16;;;13.20;55.38
22647;BME280;11490;42.726;23.268;2023-02-26T05:00:51;93874.69;;;13.24;55.04
22647;BME280;11490;42.726;23.268;2023-02-26T05:03:17;93872.72;;;13.29;55.67
22647;BME280;11490;42.726;23.268;2023-02-26T05:05:43;93870.97;;;13.20;54.97
22647;BME280;11490;42.726;23.268;2023-02-26T05:08:09;93840.00;;;13.08;55.18
22647;BME280;11490;42.726;23.268;2023-02-26T05:10:35;93875.59;;;13.09;54.29
22647;BME280;11490;42.726;23.268;2023-02-26T05:13:00;93863.03;;;13.33;53.26
22647;BME280;11490;42.726;23.268;2023-02-26T05:15:26;93867.25;;;13.39;53.91
22647;BME280;11490;42.726;23.268;2023-02-26T05:17:51;93856.06;;;13.32;54.30
22647;BME280;11490;42.726;23.268;2023-02-26T05:20:17;93850.66;;;13.37;53.06
22647;BME280;11490;42.726;23.268;2023-02-26T05:22:42;93855.00;;;13.33;52.64
22647;BME280;11490;42.726;23.268;2023-02-26T05:25:09;93873.63;;;13.43;51.65
22647;BME280;11490;42.726;23.268;2023-02-26T05:27:36;93836.13;;;13.43;53.37
22647;BME280;11490;42.726;23.268;2023-02-26T05:30:02;93856.53;;;13.39;53.29
22647;BME280;11490;42.726;23.268;2023-02-26T05:32:28;93842.19;;;13.30;52.71
22647;BME280;11490;42.726;23.268;2023-02-26T05:34:53;93830.31;;;13.36;53.08
22647;BME280;11490;42.726;23.268;2023-02-26T05:37:19;93846.09;;;13.57;50.01
22647;BME280;11490;42.726;23.268;2023-02-26T05:39:44;93842.78;;;13.65;50.02
22647;BME280;11490;42.726;23.268;2023-02-26T05:42:09;93832.16;;;13.60;50.20
22647;BME280;11490;42.726;23.268;2023-02-26T05:44:35;93859.44;;;13.80;49.61
22647;BME280;11490;42.726;23.268;2023-02-26T05:47:01;93844.53;;;13.93;48.93
22647;BME280;11490;42.726;23.268;2023-02-26T05:49:27;93842.41;;;13.90;50.11
22647;BME280;11490;42.726;23.268;2023-02-26T05:51:52;93829.81;;;13.72;49.95
22647;BME280;11490;42.726;23.268;2023-02-26T05:54:18;93870.88;;;13.86;49.01
22647;BME280;11490;42.726;23.268;2023-02-26T05:56:43;93835.41;;;13.75;49.24
22647;BME280;11490;42.726;23.268;2023-02-26T05:59:09;93842.41;;;13.71;50.10
22647;BME280;11490;42.726;23.268;2023-02-26T06:01:35;93855.38;;;13.83;48.70
22647;BME280;11490;42.726;23.268;2023-02-26T06:04:02;93860.00;;;13.96;47.29
22647;BME280;11490;42.726;23.268;2023-02-26T06:06:27;93840.00;;;14.07;46.49
22647;BME280;11490;42.726;23.268;2023-02-26T06:08:52;93855.59;;;14.05;47.51
22647;BME280;11490;42.726;23.268;2023-02-26T06:11:18;93865.78;;;14.03;48.95
22647;BME280;11490;42.726;23.268;2023-02-26T06:13:43;93834.81;;;13.97;47.72
22647;BME280;11490;42.726;23.268;2023-02-26T06:16:08;93825.28;;;14.05;48.34
22647;BME280;11490;42.726;23.268;2023-02-26T06:18:34;93858.13;;;14.15;46.29
22647;BME280;11490;42.726;23.268;2023-02-26T06:21:00;93858.22;;;14.43;45.20
22647;BME280;11490;42.726;23.268;2023-02-26T06:23:25;93864.22;;;14.53;44.65
22647;BME280;11490;42.726;23.268;2023-02-26T06:25:52;93845.56;;;14.62;43.78
22647;BME280;11490;42.726;23.268;2023-02-26T06:28:18;93841.97;;;14.80;42.87
22647;BME280;11490;42.726;23.268;2023-02-26T06:30:44;93856.94;;;15.00;42.04
22647;BME280;11490;42.726;23.268;2023-02-26T06:33:10;93861.69;;;15.03;42.21
22647;BME280;11490;42.726;23.268;2023-02-26T06:35:35;93870.75;;;15.07;42.53
22647;BME280;11490;42.726;23.268;2023-02-26T06:38:01;93858.00;;;15.13;41.77
22647;BME280;11490;42.726;23.268;2023-02-26T06:40:26;93858.13;;;15.08;41.76
22647;BME280;11490;42.726;23.268;2023-02-26T06:42:51;93870.75;;;15.21;41.76
22647;BME280;11490;42.726;23.268;2023-02-26T06:45:17;93888.84;;;15.29;41.36
22647;BME280;11490;42.726;23.268;2023-02-26T06:47:42;93843.97;;;15.43;41.16
22647;BME280;11490;42.726;23.268;2023-02-26T06:50:08;93848.34;;;15.39;43.01
22647;BME280;11490;42.726;23.268;2023-02-26T06:52:34;93854.13;;;15.46;41.36
22647;BME280;11490;42.726;23.268;2023-02-26T06:54:59;93856.50;;;15.48;40.57
22647;BME280;11490;42.726;23.268;2023-02-26T06:57:25;93842.75;;;15.49;40.99
22647;BME280;11490;42.726;23.268;2023-02-26T06:59:50;93840.97;;;15.58;39.63
22647;BME280;11490;42.726;23.268;2023-02-26T07:02:18;93831.22;;;15.62;39.93
22647;BME280;11490;42.726;23.268;2023-02-26T07:04:44;93843.97;;;15.57;39.83
22647;BME280;11490;42.726;23.268;2023-02-26T07:07:10;93856.38;;;15.66;39.28
22647;BME280;11490;42.726;23.268;2023-02-26T07:09:35;93836.97;;;15.69;39.79
22647;BME280;11490;42.726;23.268;2023-02-26T07:12:01;93866.44;;;15.74;38.72
22647;BME280;11490;42.726;23.268;2023-02-26T07:14:26;93850.69;;;15.82;39.46
22647;BME280;11490;42.726;23.268;2023-02-26T07:16:52;93883.81;;;15.91;39.59
22647;BME280;11490;42.726;23.268;2023-02-26T07:19:17;93864.03;;;15.87;38.92
22647;BME280;11490;42.726;23.268;2023-02-26T07:21:42;93878.78;;;15.75;38.67
22647;BME280;11490;42.726;23.268;2023-02-26T07:24:08;93872.19;;;15.82;38.79
22647;BME280;11490;42.726;23.268;2023-02-26T07:26:33;93874.88;;;15.82;38.79
22647;BME280;11490;42.726;23.268;2023-02-26T07:28:59;93871.16;;;15.91;38.94
22647;BME280;11490;42.726;23.268;2023-02-26T07:31:24;93836.34;;;15.86;40.10
22647;BME280;11490;42.726;23.268;2023-02-26T07:33:49;93854.25;;;15.91;40.02
22647;BME280;11490;42.726;23.268;2023-02-26T07:36:16;93840.22;;;15.80;38.84
22647;BME280;11490;42.726;23.268;2023-02-26T07:38:44;93838.47;;;15.98;38.88
22647;BME280;11490;42.726;23.268;2023-02-26T07:41:09;93830.88;;;15.77;39.20
22647;BME280;11490;42.726;23.268;2023-02-26T07:43:34;93834.13;;;15.88;39.27
22647;BME280;11490;42.726;23.268;2023-02-26T07:46:00;93833.91;;;15.98;39.70
22647;BME280;11490;42.726;23.268;2023-02-26T07:48:25;93819.13;;;15.87;39.21
22647;BME280;11490;42.726;23.268;2023-02-26T07:50:52;93839.69;;;15.92;38.64
22647;BME280;11490;42.726;23.268;2023-02-26T07:53:18;93837.69;;;15.97;39.33
22647;BME280;11490;42.726;23.268;2023-02-26T07:55:43;93833.81;;;15.90;39.38
22647;BME280;11490;42.726;23.268;2023-02-26T07:58:09;93840.50;;;15.92;38.86
22647;BME280;11490;42.726;23.268;2023-02-26T08:00:37;93845.66;;;16.02;38.46
22647;BME280;11490;42.726;23.268;2023-02-26T08:03:02;93822.84;;;16.00;38.59
22647;BME280;11490;42.726;23.268;2023-02-26T08:05:28;93823.44;;;16.19;39.70
22647;BME280;11490;42.726;23.268;2023-02-26T08:07:53;93821.63;;;16.06;38.72
22647;BME280;11490;42.726;23.268;2023-02-26T08:10:18;93825.03;;;16.20;38.88
22647;BME280;11490;42.726;23.268;2023-02-26T08:12:44;93849.88;;;16.39;39.14
22647;BME280;11490;42.726;23.268;2023-02-26T08:15:10;93828.94;;;16.36;38.15
22647;BME280;11490;42.726;23.268;2023-02-26T08:17:38;93830.53;;;16.37;37.95
22647;BME280;11490;42.726;23.268;2023-02-26T08:20:04;93853.41;;;16.48;38.07
22647;BME280;11490;42.726;23.268;2023-02-26T08:22:30;93825.88;;;16.51;38.33
22647;BME280;11490;42.726;23.268;2023-02-26T08:24:55;93840.78;;;16.58;38.29
22647;BME280;11490;42.726;23.268;2023-02-26T08:27:21;93840.75;;;16.71;36.95
22647;BME280;11490;42.726;23.268;2023-02-26T08:29:47;93865.72;;;16.94;37.57
22647;BME280;11490;42.726;23.268;2023-02-26T08:32:15;93868.47;;;17.03;39.25
22647;BME280;11490;42.726;23.268;2023-02-26T08:34:42;93833.56;;;16.98;37.96
22647;BME280;11490;42.726;23.268;2023-02-26T08:37:07;93862.09;;;16.99;36.91
22647;BME280;11490;42.726;23.268;2023-02-26T08:39:35;93878.78;;;17.09;37.12
22647;BME280;11490;42.726;23.268;2023-02-26T08:42:06;93855.34;;;17.10;36.43
22647;BME280;11490;42.726;23.268;2023-02-26T08:44:32;93886.13;;;17.17;36.86
22647;BME280;11490;42.726;23.268;2023-02-26T08:46:58;93875.22;;;17.31;36.16
22647;BME280;11490;42.726;23.268;2023-02-26T08:49:23;93880.38;;;17.50;36.58
22647;BME280;11490;42.726;23.268;2023-02-26T08:51:48;93857.31;;;17.26;35.99
22647;BME280;11490;42.726;23.268;2023-02-26T08:54:14;93857.78;;;17.28;35.32
22647;BME280;11490;42.726;23.268;2023-02-26T08:56:39;93851.06;;;17.09;35.60
22647;BME280;11490;42.726;23.268;2023-02-26T08:59:05;93873.84;;;17.51;35.69
22647;BME280;11490;42.726;23.268;2023-02-26T09:01:31;93849.53;;;17.25;34.88
22647;BME280;11490;42.726;23.268;2023-02-26T09:03:56;93877.94;;;17.40;35.78
22647;BME280;11490;42.726;23.268;2023-02-26T09:06:22;93882.53;;;17.39;35.99
22647;BME280;11490;42.726;23.268;2023-02-26T09:08:47;93881.94;;;17.51;36.29
22647;BME280;11490;42.726;23.268;2023-02-26T09:11:13;93874.63;;;17.51;36.05
22647;BME280;11490;42.726;23.268;2023-02-26T09:13:39;93888.84;;;17.74;35.27
22647;BME280;11490;42.726;23.268;2023-02-26T09:16:05;93863.97;;;17.86;35.78
22647;BME280;11490;42.726;23.268;2023-02-26T09:18:30;93859.69;;;17.93;35.48
22647;BME280;11490;42.726;23.268;2023-02-26T09:20:55;93895.25;;;18.30;34.38
22647;BME280;11490;42.726;23.268;2023-02-26T09:23:21;93863.53;;;18.27;34.59
22647;BME280;11490;42.726;23.268;2023-02-26T09:25:51;93908.44;;;18.74;33.13
22647;BME280;11490;42.726;23.268;2023-02-26T09:28:18;93880.06;;;19.06;34.00
22647;BME280;11490;42.726;23.268;2023-02-26T09:30:43;93891.56;;;19.41;32.51
22647;BME280;11490;42.726;23.268;2023-02-26T09:33:09;93877.88;;;19.38;31.53
22647;BME280;11490;42.726;23.268;2023-02-26T09:35:35;93863.97;;;19.65;30.24
22647;BME280;11490;42.726;23.268;2023-02-26T09:38:01;93898.50;;;19.59;30.58
22647;BME280;11490;42.726;23.268;2023-02-26T09:40:57;93875.59;;;20.07;30.66
22647;BME280;11490;42.726;23.268;2023-02-26T09:46:05;93882.44;;;19.84;29.92
22647;BME280;11490;42.726;23.268;2023-02-26T09:48:37;93881.28;;;20.14;30.13
22647;BME280;11490;42.726;23.268;2023-02-26T09:51:04;93885.63;;;19.86;29.92
22647;BME280;11490;42.726;23.268;2023-02-26T09:53:37;93885.63;;;19.86;30.48
22647;BME280;11490;42.726;23.268;2023-02-26T09:56:25;93904.53;;;20.15;30.30
22647;BME280;11490;42.726;23.268;2023-02-26T09:58:57;93903.41;;;19.95;30.81
22647;BME280;11490;42.726;23.268;2023-02-26T10:01:31;93895.19;;;20.13;30.41
22647;BME280;11490;42.726;23.268;2023-02-26T10:07:20;93896.44;;;19.86;31.34
22647;BME280;11490;42.726;23.268;2023-02-26T10:10:08;93883.41;;;19.88;30.80
22647;BME280;11490;42.726;23.268;2023-02-26T10:12:39;93859.13;;;19.41;31.99
22647;BME280;11490;42.726;23.268;2023-02-26T10:15:14;93888.13;;;19.91;31.83
22647;BME280;11490;42.726;23.268;2023-02-26T10:20:49;93893.06;;;19.59;31.37
22647;BME280;11490;42.726;23.268;2023-02-26T10:23:40;93863.44;;;19.92;31.66
22647;BME280;11490;42.726;23.268;2023-02-26T10:26:19;93858.66;;;19.69;31.53
22647;BME280;11490;42.726;23.268;2023-02-26T10:29:02;93880.38;;;19.89;32.49
22647;BME280;11490;42.726;23.268;2023-02-26T10:31:37;93873.50;;;19.63;32.26
22647;BME280;11490;42.726;23.268;2023-02-26T10:34:28;93861.16;;;19.44;32.50
22647;BME280;11490;42.726;23.268;2023-02-26T10:40:15;93844.97;;;19.74;33.07
22647;BME280;11490;42.726;23.268;2023-02-26T10:42:52;93833.56;;;19.89;32.59
22647;BME280;11490;42.726;23.268;2023-02-26T10:50:58;93806.00;;;19.07;33.65
22647;BME280;11490;42.726;23.268;2023-02-26T10:53:26;93858.53;;;19.27;34.61
22647;BME280;11490;42.726;23.268;2023-02-26T10:56:03;93838.84;;;19.27;34.18
22647;BME280;11490;42.726;23.268;2023-02-26T10:58:29;93813.13;;;19.12;34.15
22647;BME280;11490;42.726;23.268;2023-02-26T11:00:55;93822.59;;;18.89;34.44
22647;BME280;11490;42.726;23.268;2023-02-26T11:03:42;93832.66;;;18.79;34.42
22647;BME280;11490;42.726;23.268;2023-02-26T11:06:09;93820.72;;;18.80;35.60
22647;BME280;11490;42.726;23.268;2023-02-26T11:08:45;93825.31;;;18.89;35.16
22647;BME280;11490;42.726;23.268;2023-02-26T11:11:35;93823.13;;;18.73;34.64
22647;BME280;11490;42.726;23.268;2023-02-26T11:14:02;93813.97;;;18.57;34.77
22647;BME280;11490;42.726;23.268;2023-02-26T11:16:28;93819.34;;;18.57;35.17
22647;BME280;11490;42.726;23.268;2023-02-26T11:18:54;93820.44;;;18.48;35.18
22647;BME280;11490;42.726;23.268;2023-02-26T11:21:35;93787.97;;;18.10;35.49
22647;BME280;11490;42.726;23.268;2023-02-26T11:24:06;93814.28;;;18.30;36.22
22647;BME280;11490;42.726;23.268;2023-02-26T11:26:38;93824.94;;;18.18;36.46
22647;BME280;11490;42.726;23.268;2023-02-26T11:29:04;93835.06;;;18.12;37.15
22647;BME280;11490;42.726;23.268;2023-02-26T11:31:31;93843.50;;;17.93;37.07
22647;BME280;11490;42.726;23.268;2023-02-26T11:34:04;93830.81;;;17.85;37.38
22647;BME280;11490;42.726;23.268;2023-02-26T11:36:33;93815.56;;;17.72;37.60
22647;BME280;11490;42.726;23.268;2023-02-26T11:41:37;93826.97;;;17.69;38.60
22647;BME280;11490;42.726;23.268;2023-02-26T11:44:10;93836.66;;;17.70;39.37
22647;BME280;11490;42.726;23.268;2023-02-26T11:46:44;93834.75;;;17.71;38.76
22647;BME280;11490;42.726;23.268;2023-02-26T11:49:16;93873.63;;;17.78;39.42
22647;BME280;11490;42.726;23.268;2023-02-26T11:51:45;93839.81;;;17.63;40.56
22647;BME280;11490;42.726;23.268;2023-02-26T11:54:23;93866.81;;;17.81;39.70
22647;BME280;11490;42.726;23.268;2023-02-26T11:56:49;93875.59;;;17.47;40.22
22647;BME280;11490;42.726;23.268;2023-02-26T11:59:19;93900.19;;;17.54;40.97
22647;BME280;11490;42.726;23.268;2023-02-26T12:01:51;93881.91;;;17.34;41.47
22647;BME280;11490;42.726;23.268;2023-02-26T12:04:23;93907.56;;;17.31;41.59
22647;BME280;11490;42.726;23.268;2023-02-26T12:06:53;93933.78;;;17.48;42.77
22647;BME280;11490;42.726;23.268;2023-02-26T12:09:20;93930.97;;;17.22;42.62
22647;BME280;11490;42.726;23.268;2023-02-26T12:12:05;93948.53;;;17.42;43.17
22647;BME280;11490;42.726;23.268;2023-02-26T12:22:49;93971.97;;;17.41;42.30
22647;BME280;11490;42.726;23.268;2023-02-26T12:30:54;93973.25;;;17.44;41.47
22647;BME280;11490;42.726;23.268;2023-02-26T12:38:34;93985.13;;;17.65;41.12
22647;BME280;11490;42.726;23.268;2023-02-26T12:43:44;93990.97;;;17.67;42.11
22647;BME280;11490;42.726;23.268;2023-02-26T12:46:43;93969.94;;;17.47;41.12
22647;BME280;11490;42.726;23.268;2023-02-26T12:55:02;93996.09;;;17.77;40.36
22647;BME280;11490;42.726;23.268;2023-02-26T13:06:07;94008.97;;;17.58;41.59
22647;BME280;11490;42.726;23.268;2023-02-26T13:09:33;93988.06;;;17.55;41.04
22647;BME280;11490;42.726;23.268;2023-02-26T13:14:49;94000.88;;;17.49;40.79
22647;BME280;11490;42.726;23.268;2023-02-26T13:20:11;94003.34;;;17.37;42.80
22647;BME280;11490;42.726;23.268;2023-02-26T13:25:40;93980.38;;;17.40;44.58
22647;BME280;11490;42.726;23.268;2023-02-26T13:28:46;94012.47;;;17.50;43.45
22647;BME280;11490;42.726;23.268;2023-02-26T13:31:31;94012.28;;;17.46;44.05
22647;BME280;11490;42.726;23.268;2023-02-26T13:34:01;94011.06;;;17.61;44.39
22647;BME280;11490;42.726;23.268;2023-02-26T13:36:29;93984.63;;;17.63;44.51
22647;BME280;11490;42.726;23.268;2023-02-26T13:39:20;93999.91;;;17.76;44.94
22647;BME280;11490;42.726;23.268;2023-02-26T13:41:49;93977.72;;;17.79;45.55
22647;BME280;11490;42.726;23.268;2023-02-26T13:44:29;93981.56;;;17.95;45.21
22647;BME280;11490;42.726;23.268;2023-02-26T13:47:35;93964.38;;;17.83;43.87
22647;BME280;11490;42.726;23.268;2023-02-26T13:52:34;93936.66;;;17.51;44.78
22647;BME280;11490;42.726;23.268;2023-02-26T13:55:01;93965.00;;;17.71;44.87
22647;BME280;11490;42.726;23.268;2023-02-26T13:57:51;93983.78;;;17.93;44.99
22647;BME280;11490;42.726;23.268;2023-02-26T14:00:28;93978.38;;;17.93;44.34
22647;BME280;11490;42.726;23.268;2023-02-26T14:10:50;93973.47;;;17.95;44.07
22647;BME280;11490;42.726;23.268;2023-02-26T14:13:20;93985.38;;;17.94;44.06
22647;BME280;11490;42.726;23.268;2023-02-26T14:16:00;93972.34;;;17.96;43.41
22647;BME280;11490;42.726;23.268;2023-02-26T14:18:40;93966.34;;;17.99;43.11
22647;BME280;11490;42.726;23.268;2023-02-26T14:23:57;93980.84;;;17.64;43.91
22647;BME280;11490;42.726;23.268;2023-02-26T14:26:27;93985.94;;;17.74;44.70
22647;BME280;11490;42.726;23.268;2023-02-26T14:31:53;93980.47;;;17.57;44.91
22647;BME280;11490;42.726;23.268;2023-02-26T14:34:22;93990.44;;;17.56;45.59
22647;BME280;11490;42.726;23.268;2023-02-26T14:36:52;93986.47;;;17.54;44.42
22647;BME280;11490;42.726;23.268;2023-02-26T14:39:32;93990.91;;;17.50;44.96
22647;BME280;11490;42.726;23.268;2023-02-26T14:42:32;93983.19;;;17.35;44.65
22647;BME280;11490;42.726;23.268;2023-02-26T14:45:30;93976.47;;;17.23;46.25
22647;BME280;11490;42.726;23.268;2023-02-26T14:48:01;93987.78;;;17.03;45.91
22647;BME280;11490;42.726;23.268;2023-02-26T14:56:22;93974.56;;;16.71;47.81
22647;BME280;11490;42.726;23.268;2023-02-26T14:59:20;93998.06;;;16.79;47.49
22647;BME280;11490;42.726;23.268;2023-02-26T15:07:44;94014.81;;;16.26;49.62
22647;BME280;11490;42.726;23.268;2023-02-26T15:16:19;94036.47;;;16.21;51.02
22647;BME280;11490;42.726;23.268;2023-02-26T15:22:07;94016.25;;;16.10;52.52
22647;BME280;11490;42.726;23.268;2023-02-26T15:24:34;94034.28;;;15.82;52.92
22647;BME280;11490;42.726;23.268;2023-02-26T15:27:03;94036.59;;;15.75;53.50